X  Chiuso Dati meteorologici dell'aviazione (METAR)        LGTS Thessaloniki Macedonia International
Temperatura
57°F Temperatura
55°F Punto di rugiada
94% Umidità



Vento
7 MPH
11 KM/O
3 M/S
6 KTS



250°
OSO
Condizioni attuali

Mostly Sunny Per lo piu' sereno
Pressione 1016 (hPa) - 30 (inHg)
Visibilità 6 (miglio) - 10 (km)
Aeroporto
Codice-Aeroporto LGTS

Posizione: Thessaloniki Macedonia International
Distanza: 85 (mi)

Metar:
METAR LGTS 251020Z 25006KT 9999 FEW025 14/13 Q1016 NOSIG

Ore: 25-02-2024 12:20 EET